createdAt,value
2022-11-29T00:02:15.574Z,-1.71
2022-11-29T00:04:42.377Z,-1.72
2022-11-29T00:07:08.949Z,-1.75
2022-11-29T00:09:35.322Z,-1.78
2022-11-29T00:12:13.673Z,-1.78
2022-11-29T00:14:40.684Z,-1.76
2022-11-29T00:17:07.467Z,-1.77
2022-11-29T00:19:34.358Z,-1.79
2022-11-29T00:22:01.230Z,-1.80
2022-11-29T00:24:27.763Z,-1.79
2022-11-29T00:26:54.197Z,-1.81
2022-11-29T00:29:20.559Z,-1.80
2022-11-29T00:31:46.928Z,-1.81
2022-11-29T00:34:13.520Z,-1.84
2022-11-29T00:36:40.065Z,-1.86
2022-11-29T00:39:06.470Z,-1.86
2022-11-29T00:41:33.175Z,-1.84
2022-11-29T00:43:59.546Z,-1.81
2022-11-29T00:46:26.097Z,-1.77
2022-11-29T00:48:52.594Z,-1.73
2022-11-29T00:51:18.980Z,-1.72
2022-11-29T00:53:45.398Z,-1.71
2022-11-29T00:56:11.841Z,-1.69
2022-11-29T00:58:38.388Z,-1.67
2022-11-29T01:01:05.535Z,-1.67
2022-11-29T01:03:32.121Z,-1.66
2022-11-29T01:06:06.522Z,-1.62
2022-11-29T01:08:32.962Z,-1.64
2022-11-29T01:11:10.941Z,-1.64
2022-11-29T01:13:37.471Z,-1.64
2022-11-29T01:16:04.793Z,-1.66
2022-11-29T01:18:31.484Z,-1.66
2022-11-29T01:21:08.778Z,-1.66
2022-11-29T01:23:36.243Z,-1.67
2022-11-29T01:26:07.347Z,-1.69
2022-11-29T01:28:34.176Z,-1.67
2022-11-29T01:31:05.006Z,-1.66
2022-11-29T01:33:31.446Z,-1.66
2022-11-29T01:35:57.865Z,-1.66
2022-11-29T01:38:24.282Z,-1.64
2022-11-29T01:41:01.385Z,-1.64
2022-11-29T01:43:28.140Z,-1.58
2022-11-29T01:45:54.553Z,-1.57
2022-11-29T01:48:26.169Z,-1.45
2022-11-29T01:50:53.709Z,-1.36
2022-11-29T01:53:20.747Z,-1.25
2022-11-29T01:55:50.808Z,-1.16
2022-11-29T01:58:17.829Z,-1.09
2022-11-29T02:00:44.488Z,-1.00
2022-11-29T02:03:15.452Z,-0.97
2022-11-29T02:05:43.128Z,-0.95
2022-11-29T02:08:11.077Z,-0.95
2022-11-29T02:10:45.439Z,-1.01
2022-11-29T02:13:23.264Z,-1.06
2022-11-29T02:15:58.739Z,-1.12
2022-11-29T02:18:36.189Z,-1.15
2022-11-29T02:21:05.718Z,-1.20
2022-11-29T02:23:35.066Z,-1.21
2022-11-29T02:26:20.209Z,-1.24
2022-11-29T02:28:46.586Z,-1.20
2022-11-29T02:31:31.507Z,-1.21
2022-11-29T02:34:07.927Z,-1.23
2022-11-29T02:36:34.378Z,-1.24
2022-11-29T02:39:19.185Z,-1.25
2022-11-29T02:41:57.758Z,-1.26
2022-11-29T02:44:27.164Z,-1.29
2022-11-29T02:47:12.386Z,-1.28
2022-11-29T02:49:41.772Z,-1.31
2022-11-29T02:52:13.205Z,-1.33
2022-11-29T02:54:47.773Z,-1.33
2022-11-29T02:57:32.960Z,-1.35
2022-11-29T03:00:03.239Z,-1.39
2022-11-29T03:02:29.663Z,-1.43
2022-11-29T03:05:15.138Z,-1.47
2022-11-29T03:07:50.567Z,-1.51
2022-11-29T03:10:16.984Z,-1.53
2022-11-29T03:12:51.643Z,-1.54
2022-11-29T03:15:18.067Z,-1.56
2022-11-29T03:17:44.419Z,-1.60
2022-11-29T03:20:20.294Z,-1.63
2022-11-29T03:22:46.649Z,-1.63
2022-11-29T03:25:17.459Z,-1.65
2022-11-29T03:27:47.578Z,-1.65
2022-11-29T03:30:16.972Z,-1.66
2022-11-29T03:32:52.179Z,-1.71
2022-11-29T03:35:35.197Z,-1.72
2022-11-29T03:38:01.584Z,-1.76
2022-11-29T03:40:31.151Z,-1.77
2022-11-29T03:43:06.708Z,-1.77
2022-11-29T03:45:44.544Z,-1.79
2022-11-29T03:48:40.046Z,-1.84
2022-11-29T03:51:29.321Z,-1.88
2022-11-29T03:54:03.524Z,-1.96
2022-11-29T03:56:31.157Z,-1.96
2022-11-29T03:59:04.105Z,-2.02
2022-11-29T04:01:45.589Z,-2.02
2022-11-29T04:04:20.977Z,-2.04
2022-11-29T04:07:01.455Z,-2.06
2022-11-29T04:09:46.178Z,-2.07
2022-11-29T04:12:22.295Z,-2.10
2022-11-29T04:15:11.591Z,-2.14
2022-11-29T04:18:00.714Z,-2.16
2022-11-29T04:20:43.017Z,-2.17
2022-11-29T04:23:30.132Z,-2.19
2022-11-29T04:26:15.295Z,-2.21
2022-11-29T04:29:01.506Z,-2.24
2022-11-29T04:31:38.266Z,-2.26
2022-11-29T04:34:23.253Z,-2.28
2022-11-29T04:37:03.848Z,-2.31
2022-11-29T04:39:43.516Z,-2.34
2022-11-29T04:42:25.168Z,-2.34
2022-11-29T04:44:57.616Z,-2.37
2022-11-29T04:47:42.507Z,-2.38
2022-11-29T04:50:21.182Z,-2.36
2022-11-29T04:53:06.443Z,-2.34
2022-11-29T04:55:56.530Z,-2.35
2022-11-29T04:58:36.622Z,-2.38
2022-11-29T05:01:18.363Z,-2.41
2022-11-29T05:03:57.262Z,-2.44
2022-11-29T05:06:35.514Z,-2.47
2022-11-29T05:09:19.013Z,-2.44
2022-11-29T05:11:55.289Z,-2.37
2022-11-29T05:14:37.900Z,-2.33
2022-11-29T05:17:19.604Z,-2.34
2022-11-29T05:19:46.696Z,-2.32
2022-11-29T05:22:28.244Z,-2.38
2022-11-29T05:25:00.731Z,-2.41
2022-11-29T05:27:30.190Z,-2.46
2022-11-29T05:30:04.174Z,-2.49
2022-11-29T05:32:36.116Z,-2.52
2022-11-29T05:35:02.452Z,-2.56
2022-11-29T05:37:34.927Z,-2.60
2022-11-29T05:40:07.682Z,-2.59
2022-11-29T05:42:34.138Z,-2.58
2022-11-29T05:45:19.356Z,-2.58
2022-11-29T05:48:18.465Z,-2.62
2022-11-29T05:50:48.059Z,-2.60
2022-11-29T05:53:17.484Z,-2.61
2022-11-29T05:55:46.917Z,-2.61
2022-11-29T05:58:48.929Z,-2.62
2022-11-29T06:01:23.514Z,-2.68
2022-11-29T06:03:58.293Z,-2.65
2022-11-29T06:06:31.307Z,-2.63
2022-11-29T06:08:57.937Z,-2.59
2022-11-29T06:11:27.919Z,-2.62
2022-11-29T06:14:02.499Z,-2.66
2022-11-29T06:16:34.780Z,-2.67
2022-11-29T06:19:34.106Z,-2.62
2022-11-29T06:22:21.339Z,-2.65
2022-11-29T06:24:56.709Z,-2.68
2022-11-29T06:27:31.752Z,-2.71
2022-11-29T06:30:03.777Z,-2.76
2022-11-29T06:32:37.450Z,-2.75
2022-11-29T06:35:18.465Z,-2.81
2022-11-29T06:37:55.757Z,-2.79
2022-11-29T06:40:22.300Z,-2.80
2022-11-29T06:42:49.011Z,-2.84
2022-11-29T06:45:15.987Z,-2.79
2022-11-29T06:47:42.349Z,-2.75
2022-11-29T06:50:08.901Z,-2.70
2022-11-29T06:52:44.550Z,-2.71
2022-11-29T06:55:10.895Z,-2.76
2022-11-29T06:57:40.304Z,-2.77
2022-11-29T07:00:12.788Z,-2.74
2022-11-29T07:02:41.978Z,-2.72
2022-11-29T07:05:08.325Z,-2.67
2022-11-29T07:07:35.388Z,-2.69
2022-11-29T07:10:02.827Z,-2.73
2022-11-29T07:12:29.354Z,-2.74
2022-11-29T07:14:55.959Z,-2.72
2022-11-29T07:17:28.346Z,-2.65
2022-11-29T07:19:57.476Z,-2.58
2022-11-29T07:22:39.155Z,-2.51
2022-11-29T07:25:16.679Z,-2.49
2022-11-29T07:28:01.684Z,-2.56
2022-11-29T07:30:34.681Z,-2.59
2022-11-29T07:33:19.958Z,-2.61
2022-11-29T07:35:53.614Z,-2.65
2022-11-29T07:38:47.307Z,-2.67
2022-11-29T07:41:16.661Z,-2.66
2022-11-29T07:43:49.385Z,-2.65
2022-11-29T07:46:15.879Z,-2.64
2022-11-29T07:48:42.311Z,-2.62
2022-11-29T07:51:09.385Z,-2.62
2022-11-29T07:53:40.144Z,-2.61
2022-11-29T07:56:06.672Z,-2.62
2022-11-29T07:58:33.339Z,-2.63
2022-11-29T08:00:59.755Z,-2.61
2022-11-29T08:03:26.158Z,-2.61
2022-11-29T08:05:52.574Z,-2.58
2022-11-29T08:08:18.966Z,-2.56
2022-11-29T08:10:45.400Z,-2.53
2022-11-29T08:13:12.170Z,-2.51
2022-11-29T08:15:43.260Z,-2.50
2022-11-29T08:18:09.705Z,-2.49
2022-11-29T08:20:36.068Z,-2.46
2022-11-29T08:23:03.476Z,-2.45
2022-11-29T08:25:29.858Z,-2.39
2022-11-29T08:27:56.389Z,-2.37
2022-11-29T08:30:23.194Z,-2.36
2022-11-29T08:32:51.559Z,-2.34
2022-11-29T08:35:19.091Z,-2.30
2022-11-29T08:37:45.513Z,-2.25
2022-11-29T08:40:12.317Z,-2.23
2022-11-29T08:42:38.735Z,-2.22
2022-11-29T08:45:06.361Z,-2.20
2022-11-29T08:47:35.858Z,-2.19
2022-11-29T08:50:12.275Z,-2.17
2022-11-29T08:52:58.619Z,-2.14
2022-11-29T08:55:26.569Z,-2.10
2022-11-29T08:57:53.558Z,-2.07
2022-11-29T09:00:21.337Z,-2.03
2022-11-29T09:02:48.428Z,-2.00
2022-11-29T09:05:15.916Z,-1.95
2022-11-29T09:07:42.915Z,-1.90
2022-11-29T09:10:12.167Z,-1.85
2022-11-29T09:12:39.094Z,-1.80
2022-11-29T09:15:06.323Z,-1.73
2022-11-29T09:17:33.007Z,-1.67
2022-11-29T09:19:59.452Z,-1.62
2022-11-29T09:22:25.891Z,-1.59
2022-11-29T09:24:52.342Z,-1.55
2022-11-29T09:27:18.846Z,-1.49
2022-11-29T09:29:45.281Z,-1.44
2022-11-29T09:32:11.655Z,-1.39
2022-11-29T09:34:38.067Z,-1.35
2022-11-29T09:37:05.184Z,-1.31
2022-11-29T09:39:31.634Z,-1.29
2022-11-29T09:42:17.095Z,-1.26
2022-11-29T09:44:43.661Z,-1.20
2022-11-29T09:47:39.189Z,-1.12
2022-11-29T09:50:14.409Z,-1.06
2022-11-29T09:53:07.149Z,-0.99
2022-11-29T09:55:52.378Z,-0.93
2022-11-29T09:58:21.677Z,-0.89
2022-11-29T10:00:52.933Z,-0.90
2022-11-29T10:03:25.554Z,-0.84
2022-11-29T10:05:57.921Z,-0.81
2022-11-29T10:08:41.208Z,-0.77
2022-11-29T10:11:13.503Z,-0.71
2022-11-29T10:13:45.014Z,-0.67
2022-11-29T10:16:19.623Z,-0.64
2022-11-29T10:18:46.185Z,-0.59
2022-11-29T10:21:14.468Z,-0.55
2022-11-29T10:23:47.414Z,-0.52
2022-11-29T10:26:14.034Z,-0.49
2022-11-29T10:28:48.592Z,-0.40
2022-11-29T10:31:25.317Z,-0.30
2022-11-29T10:33:51.793Z,-0.25
2022-11-29T10:36:24.459Z,-0.18
2022-11-29T10:38:52.193Z,-0.14
2022-11-29T10:41:22.248Z,-0.05
2022-11-29T10:43:50.308Z,0.02
2022-11-29T10:46:30.907Z,0.08
2022-11-29T10:49:02.830Z,0.13
2022-11-29T10:51:29.478Z,0.15
2022-11-29T10:53:56.172Z,0.19
2022-11-29T10:56:29.328Z,0.23
2022-11-29T10:59:06.134Z,0.30
2022-11-29T11:01:33.938Z,0.36
2022-11-29T11:04:03.243Z,0.45
2022-11-29T11:06:44.550Z,0.53
2022-11-29T11:09:30.113Z,0.60
2022-11-29T11:11:58.709Z,0.69
2022-11-29T11:14:30.250Z,0.79
2022-11-29T11:16:56.933Z,0.88
2022-11-29T11:19:30.604Z,0.95
2022-11-29T11:21:58.881Z,1.04
2022-11-29T11:24:29.804Z,1.12
2022-11-29T11:26:56.614Z,1.19
2022-11-29T11:29:27.092Z,1.28
2022-11-29T11:31:56.217Z,1.39
2022-11-29T11:34:28.568Z,1.46
2022-11-29T11:37:15.197Z,1.53
2022-11-29T11:39:42.615Z,1.63
2022-11-29T11:42:32.509Z,1.69
2022-11-29T11:44:59.388Z,1.77
2022-11-29T11:47:27.403Z,1.84
2022-11-29T11:49:55.881Z,1.91
2022-11-29T11:52:24.821Z,2.01
2022-11-29T11:55:02.148Z,2.10
2022-11-29T11:57:28.891Z,2.19
2022-11-29T11:59:57.859Z,2.27
2022-11-29T12:02:27.227Z,2.33
2022-11-29T12:05:01.411Z,2.41
2022-11-29T12:10:36.384Z,2.56
2022-11-29T12:13:02.960Z,2.60
2022-11-29T12:15:38.404Z,2.64
2022-11-29T12:18:20.246Z,2.66
2022-11-29T12:21:19.250Z,2.67
2022-11-29T12:24:00.450Z,2.71
2022-11-29T12:26:55.850Z,2.73
2022-11-29T12:29:17.493Z,2.74
2022-11-29T12:32:02.811Z,2.78
2022-11-29T12:34:43.252Z,2.76
2022-11-29T12:37:24.903Z,2.79
2022-11-29T12:39:57.440Z,2.83
2022-11-29T12:42:49.668Z,2.84
2022-11-29T12:45:30.634Z,2.95
2022-11-29T12:48:10.159Z,3.05
2022-11-29T12:50:36.753Z,3.13
2022-11-29T12:53:22.556Z,3.16
2022-11-29T12:56:07.159Z,3.23
2022-11-29T12:58:52.229Z,3.35
2022-11-29T13:01:37.128Z,3.39
2022-11-29T13:04:11.596Z,3.44
2022-11-29T13:06:49.438Z,3.41
2022-11-29T13:09:15.786Z,3.47
2022-11-29T13:11:45.103Z,3.48
2022-11-29T13:14:42.560Z,3.53
2022-11-29T13:17:36.254Z,3.51
2022-11-29T13:20:14.195Z,3.50
2022-11-29T13:22:52.739Z,3.44
2022-11-29T13:25:23.665Z,3.41
2022-11-29T13:27:58.585Z,3.38
2022-11-29T13:30:26.148Z,3.35
2022-11-29T13:33:04.546Z,3.33
2022-11-29T13:35:44.284Z,3.32
2022-11-29T13:38:18.539Z,3.30
2022-11-29T13:40:55.015Z,3.24
2022-11-29T13:43:34.465Z,3.17
2022-11-29T13:46:06.980Z,3.08
2022-11-29T13:48:36.991Z,3.07
2022-11-29T13:51:32.655Z,3.08
2022-11-29T13:54:03.394Z,3.02
2022-11-29T13:56:36.065Z,2.99
2022-11-29T13:59:07.579Z,2.91
2022-11-29T14:01:43.643Z,2.90
2022-11-29T14:04:16.228Z,2.86
2022-11-29T14:06:42.758Z,2.82
2022-11-29T14:09:35.285Z,2.76
2022-11-29T14:12:18.183Z,2.67
2022-11-29T14:14:47.825Z,2.60
2022-11-29T14:17:34.042Z,2.51
2022-11-29T14:20:23.586Z,2.42
2022-11-29T14:23:05.221Z,2.32
2022-11-29T14:25:54.995Z,2.22
2022-11-29T14:28:21.544Z,2.12
2022-11-29T14:31:14.068Z,2.08
2022-11-29T14:33:46.516Z,1.98
2022-11-29T14:36:13.300Z,1.91
2022-11-29T14:38:42.437Z,1.84
2022-11-29T14:41:18.058Z,1.78
2022-11-29T14:43:44.532Z,1.69
2022-11-29T14:46:13.974Z,1.61
2022-11-29T14:48:44.336Z,1.53
2022-11-29T14:51:15.768Z,1.49
2022-11-29T14:53:43.322Z,1.50
2022-11-29T14:56:28.518Z,1.42
2022-11-29T14:59:13.752Z,1.34
2022-11-29T15:01:44.946Z,1.29
2022-11-29T15:04:12.633Z,1.23
2022-11-29T15:06:44.375Z,1.16
2022-11-29T15:09:19.253Z,1.09
2022-11-29T15:11:51.934Z,1.02
2022-11-29T15:14:37.499Z,0.94
2022-11-29T15:17:10.038Z,0.92
2022-11-29T15:19:42.581Z,0.88
2022-11-29T15:22:19.757Z,0.79
2022-11-29T15:24:49.715Z,0.71
2022-11-29T15:27:18.145Z,0.65
2022-11-29T15:29:48.464Z,0.60
2022-11-29T15:32:20.762Z,0.53
2022-11-29T15:34:50.492Z,0.44
2022-11-29T15:37:32.006Z,0.43
2022-11-29T15:40:03.692Z,0.37
2022-11-29T15:42:38.258Z,0.28
2022-11-29T15:45:22.913Z,0.23
2022-11-29T15:47:49.583Z,0.17
2022-11-29T15:50:32.104Z,0.13
2022-11-29T15:53:00.746Z,0.10
2022-11-29T15:55:27.635Z,0.03
2022-11-29T15:57:55.743Z,-0.01
2022-11-29T16:00:24.304Z,-0.08
2022-11-29T16:02:52.238Z,-0.13
2022-11-29T16:05:23.402Z,-0.18
2022-11-29T16:07:52.384Z,-0.22
2022-11-29T16:10:22.872Z,-0.27
2022-11-29T16:12:57.808Z,-0.31
2022-11-29T16:15:27.056Z,-0.33
2022-11-29T16:17:53.467Z,-0.31
2022-11-29T16:20:24.510Z,-0.30
2022-11-29T16:23:03.911Z,-0.33
2022-11-29T16:25:36.035Z,-0.34
2022-11-29T16:28:04.212Z,-0.38
2022-11-29T16:30:31.405Z,-0.43
2022-11-29T16:33:03.386Z,-0.50
2022-11-29T16:35:31.619Z,-0.58
2022-11-29T16:37:58.003Z,-0.60
2022-11-29T16:40:26.020Z,-0.65
2022-11-29T16:43:04.453Z,-0.70
2022-11-29T16:45:38.078Z,-0.73
2022-11-29T16:48:38.098Z,-0.73
2022-11-29T16:51:10.688Z,-0.80
2022-11-29T16:53:37.954Z,-0.84
2022-11-29T16:56:04.951Z,-0.87
2022-11-29T16:58:31.710Z,-0.89
2022-11-29T17:00:58.141Z,-0.93
2022-11-29T17:03:24.533Z,-0.97
2022-11-29T17:05:50.912Z,-1.02
2022-11-29T17:08:17.358Z,-1.05
2022-11-29T17:10:43.790Z,-1.05
2022-11-29T17:13:10.745Z,-1.04
2022-11-29T17:15:37.158Z,-1.07
2022-11-29T17:18:03.645Z,-1.10
2022-11-29T17:20:30.033Z,-1.12
2022-11-29T17:22:57.270Z,-1.15
2022-11-29T17:25:23.647Z,-1.19
2022-11-29T17:27:50.303Z,-1.23
2022-11-29T17:30:16.778Z,-1.29
2022-11-29T17:32:43.165Z,-1.31
2022-11-29T17:35:09.677Z,-1.33
2022-11-29T17:37:36.044Z,-1.36
2022-11-29T17:40:02.537Z,-1.39
2022-11-29T17:42:28.943Z,-1.39
2022-11-29T17:44:55.305Z,-1.42
2022-11-29T17:47:21.711Z,-1.44
2022-11-29T17:49:48.464Z,-1.46
2022-11-29T17:52:15.058Z,-1.48
2022-11-29T17:54:41.518Z,-1.51
2022-11-29T17:57:07.956Z,-1.54
2022-11-29T17:59:34.412Z,-1.57
2022-11-29T18:02:02.171Z,-1.60
2022-11-29T18:04:28.658Z,-1.60
2022-11-29T18:06:55.075Z,-1.59
2022-11-29T18:09:21.462Z,-1.63
2022-11-29T18:11:49.900Z,-1.65
2022-11-29T18:14:18.324Z,-1.70
2022-11-29T18:16:45.614Z,-1.74
2022-11-29T18:19:13.693Z,-1.79
2022-11-29T18:21:40.169Z,-1.79
2022-11-29T18:24:07.164Z,-1.83
2022-11-29T18:26:34.456Z,-1.83
2022-11-29T18:29:00.974Z,-1.86
2022-11-29T18:31:28.550Z,-1.87
2022-11-29T18:33:56.066Z,-1.88
2022-11-29T18:36:23.956Z,-1.90
2022-11-29T18:38:54.730Z,-1.95
2022-11-29T18:41:21.916Z,-1.96
2022-11-29T18:43:48.918Z,-1.96
2022-11-29T18:46:16.601Z,-1.99
2022-11-29T18:48:44.035Z,-2.01
2022-11-29T18:51:11.785Z,-2.06
2022-11-29T18:53:38.917Z,-2.06
2022-11-29T18:56:06.843Z,-2.10
2022-11-29T18:58:33.446Z,-2.11
2022-11-29T19:01:07.258Z,-2.13
2022-11-29T19:03:38.061Z,-2.16
2022-11-29T19:06:05.477Z,-2.19
2022-11-29T19:08:32.484Z,-2.20
2022-11-29T19:10:59.039Z,-2.23
2022-11-29T19:13:25.426Z,-2.23
2022-11-29T19:15:55.572Z,-2.24
2022-11-29T19:18:22.280Z,-2.24
2022-11-29T19:20:48.922Z,-2.18
2022-11-29T19:23:15.910Z,-2.18
2022-11-29T19:25:42.460Z,-2.23
2022-11-29T19:28:13.924Z,-2.25
2022-11-29T19:30:40.789Z,-2.27
2022-11-29T19:33:07.270Z,-2.25
2022-11-29T19:35:34.693Z,-2.23
2022-11-29T19:38:01.261Z,-2.27
2022-11-29T19:40:27.809Z,-2.27
2022-11-29T19:42:54.271Z,-2.28
2022-11-29T19:45:21.873Z,-2.27
2022-11-29T19:47:48.268Z,-2.29
2022-11-29T19:50:14.696Z,-2.30
2022-11-29T19:52:41.073Z,-2.35
2022-11-29T19:55:07.586Z,-2.35
2022-11-29T19:57:34.074Z,-2.39
2022-11-29T20:00:00.525Z,-2.39
2022-11-29T20:02:27.862Z,-2.43
2022-11-29T20:04:54.333Z,-2.45
2022-11-29T20:07:20.728Z,-2.46
2022-11-29T20:09:47.563Z,-2.48
2022-11-29T20:12:14.132Z,-2.49
2022-11-29T20:14:40.563Z,-2.50
2022-11-29T20:17:07.120Z,-2.52
2022-11-29T20:19:33.585Z,-2.53
2022-11-29T20:22:00.616Z,-2.55
2022-11-29T20:24:27.002Z,-2.57
2022-11-29T20:26:53.515Z,-2.58
2022-11-29T20:29:21.514Z,-2.59
2022-11-29T20:31:50.901Z,-2.61
2022-11-29T20:34:18.203Z,-2.65
2022-11-29T20:36:49.479Z,-2.67
2022-11-29T20:39:34.034Z,-2.67
2022-11-29T20:42:00.507Z,-2.68
2022-11-29T20:44:33.096Z,-2.66
2022-11-29T20:46:59.645Z,-2.68
2022-11-29T20:49:26.177Z,-2.68
2022-11-29T20:52:02.031Z,-2.71
2022-11-29T20:54:28.564Z,-2.74
2022-11-29T20:56:54.954Z,-2.77
2022-11-29T20:59:21.548Z,-2.79
2022-11-29T21:01:48.057Z,-2.80
2022-11-29T21:04:16.750Z,-2.82
2022-11-29T21:06:46.651Z,-2.84
2022-11-29T21:09:13.082Z,-2.85
2022-11-29T21:11:39.652Z,-2.87
2022-11-29T21:14:07.630Z,-2.90
2022-11-29T21:16:34.166Z,-2.90
2022-11-29T21:19:01.863Z,-2.91
2022-11-29T21:21:31.148Z,-2.92
2022-11-29T21:24:10.892Z,-2.91
2022-11-29T21:26:43.086Z,-2.93
2022-11-29T21:29:09.477Z,-2.95
2022-11-29T21:31:36.274Z,-2.97
2022-11-29T21:34:02.709Z,-2.98
2022-11-29T21:36:29.310Z,-3.01
2022-11-29T21:38:56.053Z,-3.01
2022-11-29T21:41:23.545Z,-3.02
2022-11-29T21:44:06.146Z,-3.04
2022-11-29T21:46:33.411Z,-3.02
2022-11-29T21:48:59.817Z,-2.98
2022-11-29T21:51:26.289Z,-2.99
2022-11-29T21:53:52.672Z,-3.00
2022-11-29T21:56:19.065Z,-3.04
2022-11-29T21:58:45.513Z,-3.04
2022-11-29T22:01:13.984Z,-3.06
2022-11-29T22:03:41.317Z,-3.07
2022-11-29T22:06:12.124Z,-3.10
2022-11-29T22:08:39.572Z,-3.11
2022-11-29T22:11:09.807Z,-3.12
2022-11-29T22:13:36.990Z,-3.15
2022-11-29T22:16:04.627Z,-3.15
2022-11-29T22:18:31.117Z,-3.14
2022-11-29T22:21:01.080Z,-3.14
2022-11-29T22:23:27.525Z,-3.13
2022-11-29T22:25:53.902Z,-3.17
2022-11-29T22:28:20.285Z,-3.19
2022-11-29T22:30:46.691Z,-3.20
2022-11-29T22:33:13.551Z,-3.22
2022-11-29T22:35:43.609Z,-3.22
2022-11-29T22:38:10.133Z,-3.22
2022-11-29T22:40:36.501Z,-3.20
2022-11-29T22:43:02.888Z,-3.24
2022-11-29T22:45:29.286Z,-3.26
2022-11-29T22:47:55.684Z,-3.28
2022-11-29T22:50:22.082Z,-3.32
2022-11-29T22:52:48.512Z,-3.31
2022-11-29T22:55:14.955Z,-3.29
2022-11-29T22:57:41.381Z,-3.31
2022-11-29T23:00:08.180Z,-3.33
2022-11-29T23:02:34.642Z,-3.35
2022-11-29T23:05:01.141Z,-3.38
2022-11-29T23:07:27.580Z,-3.37
2022-11-29T23:09:55.943Z,-3.31
2022-11-29T23:12:22.371Z,-3.29
2022-11-29T23:14:54.517Z,-3.27
2022-11-29T23:17:22.599Z,-3.30
2022-11-29T23:19:48.982Z,-3.32
2022-11-29T23:22:15.365Z,-3.32
2022-11-29T23:24:42.655Z,-3.36
2022-11-29T23:27:09.138Z,-3.42
2022-11-29T23:29:35.511Z,-3.44
2022-11-29T23:32:01.924Z,-3.48
2022-11-29T23:34:28.329Z,-3.49
2022-11-29T23:36:54.753Z,-3.50
2022-11-29T23:39:21.135Z,-3.52
2022-11-29T23:41:47.522Z,-3.54
2022-11-29T23:44:13.883Z,-3.54
2022-11-29T23:46:40.284Z,-3.56
2022-11-29T23:49:06.670Z,-3.58
2022-11-29T23:51:33.205Z,-3.60
2022-11-29T23:53:59.691Z,-3.63
2022-11-29T23:56:26.104Z,-3.65
2022-11-29T23:58:52.500Z,-3.67
